首页
METAR-TAF:

METAR-TAF

机场 :

埃夫勒, 法国

纬度: 49-01N, 经度: 001-13E, 海拔: 141米

当前天气观测

该预报发布于35分钟前的12:00 UTC
风速12节,风向西转西南,在南转西南西之间变化
温度 21°C
湿度 43%
气压 1019 hPa
能见度10公里或以上
少量云层高于100英尺
散云层高于5600英尺

METAR: LFOE 191200Z AUTO 24012KT 210V280 9999 FEW001 SCT056 21/08 Q1019 NOSIG

时间: 14:35 (12:35 UTC)

预报

该预报发布于4小时和35分钟前的08:00 UTC
预报有效从19日的 09点(UTC)到 20日的 09点(UTC)
风速5节,风向西南
能见度10公里或以上
1500米以下无云,无积雨云

TAF: LFOE 190800Z 1909/2009 22005KT CAVOK

超过4000个机场的气象观测和天气预报(METAR&TAF报告)。

可查询的气象台以黄色和红色小点在地图上表示。

将鼠标移到小点上方,可查看气象台名称。

然后点击查看天气观测和预报。

如需切换地图:点击带黑十字的绿色按钮放大地图;点击带横线的绿色按钮缩小地图;或者点击绿色箭头查看邻近地区的地图。


METAR-TAF: